sensor_id;sensor_type;location;lat;lon;timestamp;P1;durP1;ratioP1;P2;durP2;ratioP2
83649;SDS011;73612;50.948;6.956;2024-03-22T00:00:25;50.30;;;23.87;;
83649;SDS011;73612;50.948;6.956;2024-03-22T00:02:52;49.63;;;23.93;;
83649;SDS011;73612;50.948;6.956;2024-03-22T00:05:19;50.30;;;24.37;;
83649;SDS011;73612;50.948;6.956;2024-03-22T00:07:46;51.87;;;23.73;;
83649;SDS011;73612;50.948;6.956;2024-03-22T00:10:12;49.03;;;23.80;;
83649;SDS011;73612;50.948;6.956;2024-03-22T00:12:39;48.73;;;24.10;;
83649;SDS011;73612;50.948;6.956;2024-03-22T00:15:06;47.80;;;25.00;;
83649;SDS011;73612;50.948;6.956;2024-03-22T00:17:33;47.43;;;24.37;;
83649;SDS011;73612;50.948;6.956;2024-03-22T00:20:00;46.07;;;24.40;;
83649;SDS011;73612;50.948;6.956;2024-03-22T00:22:26;43.63;;;23.17;;
83649;SDS011;73612;50.948;6.956;2024-03-22T00:24:53;49.37;;;25.17;;
83649;SDS011;73612;50.948;6.956;2024-03-22T00:27:20;47.80;;;24.17;;
83649;SDS011;73612;50.948;6.956;2024-03-22T00:29:47;49.83;;;23.80;;
83649;SDS011;73612;50.948;6.956;2024-03-22T00:32:13;45.50;;;23.60;;
83649;SDS011;73612;50.948;6.956;2024-03-22T00:34:40;45.33;;;23.47;;
83649;SDS011;73612;50.948;6.956;2024-03-22T00:37:07;46.63;;;24.60;;
83649;SDS011;73612;50.948;6.956;2024-03-22T00:39:33;47.43;;;24.33;;
83649;SDS011;73612;50.948;6.956;2024-03-22T00:42:00;45.53;;;24.63;;
83649;SDS011;73612;50.948;6.956;2024-03-22T00:44:27;46.53;;;24.67;;
83649;SDS011;73612;50.948;6.956;2024-03-22T00:46:54;45.90;;;25.13;;
83649;SDS011;73612;50.948;6.956;2024-03-22T00:49:20;47.13;;;24.20;;
83649;SDS011;73612;50.948;6.956;2024-03-22T00:51:47;46.27;;;24.03;;
83649;SDS011;73612;50.948;6.956;2024-03-22T00:54:13;51.50;;;25.77;;
83649;SDS011;73612;50.948;6.956;2024-03-22T00:56:40;43.53;;;24.50;;
83649;SDS011;73612;50.948;6.956;2024-03-22T00:59:07;51.80;;;26.17;;
83649;SDS011;73612;50.948;6.956;2024-03-22T01:01:34;45.93;;;24.17;;
83649;SDS011;73612;50.948;6.956;2024-03-22T01:04:01;44.47;;;24.90;;
83649;SDS011;73612;50.948;6.956;2024-03-22T01:06:27;43.87;;;24.93;;
83649;SDS011;73612;50.948;6.956;2024-03-22T01:08:54;41.90;;;24.00;;
83649;SDS011;73612;50.948;6.956;2024-03-22T01:11:21;45.87;;;25.90;;
83649;SDS011;73612;50.948;6.956;2024-03-22T01:13:47;39.93;;;23.63;;
83649;SDS011;73612;50.948;6.956;2024-03-22T01:16:14;44.37;;;24.40;;
83649;SDS011;73612;50.948;6.956;2024-03-22T01:18:41;44.90;;;25.37;;
83649;SDS011;73612;50.948;6.956;2024-03-22T01:21:07;43.00;;;24.93;;
83649;SDS011;73612;50.948;6.956;2024-03-22T01:23:34;43.53;;;23.87;;
83649;SDS011;73612;50.948;6.956;2024-03-22T01:26:01;43.33;;;24.97;;
83649;SDS011;73612;50.948;6.956;2024-03-22T01:28:27;41.80;;;24.80;;
83649;SDS011;73612;50.948;6.956;2024-03-22T01:30:54;43.50;;;25.00;;
83649;SDS011;73612;50.948;6.956;2024-03-22T01:33:21;41.00;;;23.97;;
83649;SDS011;73612;50.948;6.956;2024-03-22T01:35:48;40.23;;;22.73;;
83649;SDS011;73612;50.948;6.956;2024-03-22T01:38:15;39.20;;;23.10;;
83649;SDS011;73612;50.948;6.956;2024-03-22T01:40:41;41.07;;;24.27;;
83649;SDS011;73612;50.948;6.956;2024-03-22T01:43:08;39.97;;;23.37;;
83649;SDS011;73612;50.948;6.956;2024-03-22T01:45:35;41.07;;;22.63;;
83649;SDS011;73612;50.948;6.956;2024-03-22T01:48:02;42.87;;;22.93;;
83649;SDS011;73612;50.948;6.956;2024-03-22T01:50:29;41.07;;;22.73;;
83649;SDS011;73612;50.948;6.956;2024-03-22T01:52:57;39.07;;;22.43;;
83649;SDS011;73612;50.948;6.956;2024-03-22T01:55:24;41.07;;;23.13;;
83649;SDS011;73612;50.948;6.956;2024-03-22T01:57:50;42.57;;;23.53;;
83649;SDS011;73612;50.948;6.956;2024-03-22T02:00:17;41.97;;;23.20;;
83649;SDS011;73612;50.948;6.956;2024-03-22T02:02:44;39.27;;;21.90;;
83649;SDS011;73612;50.948;6.956;2024-03-22T02:05:12;38.50;;;22.27;;
83649;SDS011;73612;50.948;6.956;2024-03-22T02:07:39;38.70;;;21.90;;
83649;SDS011;73612;50.948;6.956;2024-03-22T02:10:06;35.60;;;21.47;;
83649;SDS011;73612;50.948;6.956;2024-03-22T02:12:33;43.00;;;23.90;;
83649;SDS011;73612;50.948;6.956;2024-03-22T02:15:00;40.20;;;22.37;;
83649;SDS011;73612;50.948;6.956;2024-03-22T02:17:27;37.73;;;21.47;;
83649;SDS011;73612;50.948;6.956;2024-03-22T02:19:53;36.13;;;21.00;;
83649;SDS011;73612;50.948;6.956;2024-03-22T02:22:20;36.70;;;20.83;;
83649;SDS011;73612;50.948;6.956;2024-03-22T02:24:47;39.23;;;22.37;;
83649;SDS011;73612;50.948;6.956;2024-03-22T02:27:13;39.47;;;21.73;;
83649;SDS011;73612;50.948;6.956;2024-03-22T02:29:40;39.60;;;21.97;;
83649;SDS011;73612;50.948;6.956;2024-03-22T02:32:07;33.47;;;20.87;;
83649;SDS011;73612;50.948;6.956;2024-03-22T02:34:34;44.00;;;23.33;;
83649;SDS011;73612;50.948;6.956;2024-03-22T02:37:02;42.40;;;22.60;;
83649;SDS011;73612;50.948;6.956;2024-03-22T02:39:29;38.27;;;22.33;;
83649;SDS011;73612;50.948;6.956;2024-03-22T02:41:56;37.23;;;20.90;;
83649;SDS011;73612;50.948;6.956;2024-03-22T02:44:22;34.43;;;20.57;;
83649;SDS011;73612;50.948;6.956;2024-03-22T02:46:49;36.90;;;21.17;;
83649;SDS011;73612;50.948;6.956;2024-03-22T02:49:16;40.07;;;21.90;;
83649;SDS011;73612;50.948;6.956;2024-03-22T02:51:43;39.37;;;21.77;;
83649;SDS011;73612;50.948;6.956;2024-03-22T02:54:09;35.37;;;20.67;;
83649;SDS011;73612;50.948;6.956;2024-03-22T02:56:36;36.37;;;21.20;;
83649;SDS011;73612;50.948;6.956;2024-03-22T02:59:03;37.10;;;20.70;;
83649;SDS011;73612;50.948;6.956;2024-03-22T03:01:29;36.80;;;19.93;;
83649;SDS011;73612;50.948;6.956;2024-03-22T03:03:56;41.47;;;21.40;;
83649;SDS011;73612;50.948;6.956;2024-03-22T03:06:22;36.63;;;20.33;;
83649;SDS011;73612;50.948;6.956;2024-03-22T03:08:49;32.53;;;20.13;;
83649;SDS011;73612;50.948;6.956;2024-03-22T03:11:16;31.90;;;19.07;;
83649;SDS011;73612;50.948;6.956;2024-03-22T03:13:42;38.57;;;22.27;;
83649;SDS011;73612;50.948;6.956;2024-03-22T03:16:09;40.50;;;21.30;;
83649;SDS011;73612;50.948;6.956;2024-03-22T03:18:35;35.40;;;20.40;;
83649;SDS011;73612;50.948;6.956;2024-03-22T03:21:02;38.97;;;20.40;;
83649;SDS011;73612;50.948;6.956;2024-03-22T03:23:29;32.77;;;19.03;;
83649;SDS011;73612;50.948;6.956;2024-03-22T03:25:55;34.77;;;19.37;;
83649;SDS011;73612;50.948;6.956;2024-03-22T03:28:22;42.03;;;23.83;;
83649;SDS011;73612;50.948;6.956;2024-03-22T03:30:48;33.87;;;20.70;;
83649;SDS011;73612;50.948;6.956;2024-03-22T03:33:15;37.50;;;21.27;;
83649;SDS011;73612;50.948;6.956;2024-03-22T03:35:45;34.47;;;20.03;;
83649;SDS011;73612;50.948;6.956;2024-03-22T03:38:11;33.80;;;20.37;;
83649;SDS011;73612;50.948;6.956;2024-03-22T03:40:38;35.17;;;20.67;;
83649;SDS011;73612;50.948;6.956;2024-03-22T03:43:04;37.77;;;21.20;;
83649;SDS011;73612;50.948;6.956;2024-03-22T03:45:31;40.37;;;20.93;;
83649;SDS011;73612;50.948;6.956;2024-03-22T03:47:57;38.33;;;21.20;;
83649;SDS011;73612;50.948;6.956;2024-03-22T03:50:24;38.90;;;20.70;;
83649;SDS011;73612;50.948;6.956;2024-03-22T03:52:51;36.07;;;20.70;;
83649;SDS011;73612;50.948;6.956;2024-03-22T03:55:17;33.77;;;21.37;;
83649;SDS011;73612;50.948;6.956;2024-03-22T03:57:44;41.67;;;21.50;;
83649;SDS011;73612;50.948;6.956;2024-03-22T04:00:11;34.17;;;20.63;;
83649;SDS011;73612;50.948;6.956;2024-03-22T04:02:37;34.10;;;19.57;;
83649;SDS011;73612;50.948;6.956;2024-03-22T04:05:04;33.80;;;19.60;;
83649;SDS011;73612;50.948;6.956;2024-03-22T04:07:31;36.50;;;19.77;;
83649;SDS011;73612;50.948;6.956;2024-03-22T04:09:57;32.87;;;19.30;;
83649;SDS011;73612;50.948;6.956;2024-03-22T04:12:24;34.30;;;18.67;;
83649;SDS011;73612;50.948;6.956;2024-03-22T04:14:51;35.53;;;20.43;;
83649;SDS011;73612;50.948;6.956;2024-03-22T04:17:17;34.17;;;20.67;;
83649;SDS011;73612;50.948;6.956;2024-03-22T04:19:44;33.93;;;19.63;;
83649;SDS011;73612;50.948;6.956;2024-03-22T04:22:10;32.17;;;18.63;;
83649;SDS011;73612;50.948;6.956;2024-03-22T04:24:37;40.87;;;21.80;;
83649;SDS011;73612;50.948;6.956;2024-03-22T04:27:04;28.63;;;18.33;;
83649;SDS011;73612;50.948;6.956;2024-03-22T04:29:30;34.10;;;19.47;;
83649;SDS011;73612;50.948;6.956;2024-03-22T04:31:57;33.57;;;19.47;;
83649;SDS011;73612;50.948;6.956;2024-03-22T04:34:23;34.77;;;19.97;;
83649;SDS011;73612;50.948;6.956;2024-03-22T04:36:50;34.37;;;19.50;;
83649;SDS011;73612;50.948;6.956;2024-03-22T04:39:17;36.90;;;20.70;;
83649;SDS011;73612;50.948;6.956;2024-03-22T04:41:43;36.63;;;20.33;;
83649;SDS011;73612;50.948;6.956;2024-03-22T04:44:10;33.50;;;19.97;;
83649;SDS011;73612;50.948;6.956;2024-03-22T04:46:36;34.03;;;19.27;;
83649;SDS011;73612;50.948;6.956;2024-03-22T04:49:03;33.23;;;19.37;;
83649;SDS011;73612;50.948;6.956;2024-03-22T04:51:30;44.10;;;20.50;;
83649;SDS011;73612;50.948;6.956;2024-03-22T04:53:56;34.77;;;19.93;;
83649;SDS011;73612;50.948;6.956;2024-03-22T04:56:23;34.63;;;19.30;;
83649;SDS011;73612;50.948;6.956;2024-03-22T04:58:49;35.03;;;19.63;;
83649;SDS011;73612;50.948;6.956;2024-03-22T05:01:16;36.10;;;19.40;;
83649;SDS011;73612;50.948;6.956;2024-03-22T05:03:43;35.77;;;19.97;;
83649;SDS011;73612;50.948;6.956;2024-03-22T05:06:09;32.30;;;20.07;;
83649;SDS011;73612;50.948;6.956;2024-03-22T05:08:36;35.53;;;19.33;;
83649;SDS011;73612;50.948;6.956;2024-03-22T05:11:02;33.07;;;18.50;;
83649;SDS011;73612;50.948;6.956;2024-03-22T05:13:29;30.67;;;18.23;;
83649;SDS011;73612;50.948;6.956;2024-03-22T05:15:56;37.07;;;19.30;;
83649;SDS011;73612;50.948;6.956;2024-03-22T05:18:23;35.23;;;19.70;;
83649;SDS011;73612;50.948;6.956;2024-03-22T05:20:49;31.43;;;19.73;;
83649;SDS011;73612;50.948;6.956;2024-03-22T05:23:16;32.33;;;18.20;;
83649;SDS011;73612;50.948;6.956;2024-03-22T05:25:43;36.43;;;19.17;;
83649;SDS011;73612;50.948;6.956;2024-03-22T05:28:09;31.23;;;17.80;;
83649;SDS011;73612;50.948;6.956;2024-03-22T05:30:36;35.93;;;19.27;;
83649;SDS011;73612;50.948;6.956;2024-03-22T05:33:03;35.30;;;19.43;;
83649;SDS011;73612;50.948;6.956;2024-03-22T05:35:29;32.93;;;18.00;;
83649;SDS011;73612;50.948;6.956;2024-03-22T05:37:56;29.27;;;18.87;;
83649;SDS011;73612;50.948;6.956;2024-03-22T05:40:23;28.50;;;17.43;;
83649;SDS011;73612;50.948;6.956;2024-03-22T05:42:50;31.33;;;18.47;;
83649;SDS011;73612;50.948;6.956;2024-03-22T05:45:16;32.83;;;17.80;;
83649;SDS011;73612;50.948;6.956;2024-03-22T05:47:43;32.17;;;18.67;;
83649;SDS011;73612;50.948;6.956;2024-03-22T05:50:10;28.93;;;17.30;;
83649;SDS011;73612;50.948;6.956;2024-03-22T05:52:36;32.63;;;17.00;;
83649;SDS011;73612;50.948;6.956;2024-03-22T05:55:03;31.10;;;18.37;;
83649;SDS011;73612;50.948;6.956;2024-03-22T05:57:30;31.70;;;17.63;;
83649;SDS011;73612;50.948;6.956;2024-03-22T05:59:57;29.63;;;17.17;;
83649;SDS011;73612;50.948;6.956;2024-03-22T06:02:24;31.90;;;18.03;;
83649;SDS011;73612;50.948;6.956;2024-03-22T06:04:50;30.13;;;18.13;;
83649;SDS011;73612;50.948;6.956;2024-03-22T06:07:17;28.77;;;17.23;;
83649;SDS011;73612;50.948;6.956;2024-03-22T06:09:44;31.93;;;18.80;;
83649;SDS011;73612;50.948;6.956;2024-03-22T06:12:12;31.27;;;17.77;;
83649;SDS011;73612;50.948;6.956;2024-03-22T06:14:40;33.60;;;17.43;;
83649;SDS011;73612;50.948;6.956;2024-03-22T06:17:06;28.40;;;17.40;;
83649;SDS011;73612;50.948;6.956;2024-03-22T06:19:34;33.77;;;18.03;;
83649;SDS011;73612;50.948;6.956;2024-03-22T06:22:01;28.83;;;17.27;;
83649;SDS011;73612;50.948;6.956;2024-03-22T06:24:29;28.47;;;16.40;;
83649;SDS011;73612;50.948;6.956;2024-03-22T06:26:56;31.73;;;17.40;;
83649;SDS011;73612;50.948;6.956;2024-03-22T06:29:23;29.60;;;17.20;;
83649;SDS011;73612;50.948;6.956;2024-03-22T06:31:49;32.43;;;18.20;;
83649;SDS011;73612;50.948;6.956;2024-03-22T06:34:16;27.63;;;16.83;;
83649;SDS011;73612;50.948;6.956;2024-03-22T06:36:43;28.60;;;17.77;;
83649;SDS011;73612;50.948;6.956;2024-03-22T06:39:10;30.77;;;18.43;;
83649;SDS011;73612;50.948;6.956;2024-03-22T06:41:36;31.23;;;17.93;;
83649;SDS011;73612;50.948;6.956;2024-03-22T06:44:03;36.33;;;18.07;;
83649;SDS011;73612;50.948;6.956;2024-03-22T06:46:30;31.63;;;18.47;;
83649;SDS011;73612;50.948;6.956;2024-03-22T06:48:57;34.33;;;19.47;;
83649;SDS011;73612;50.948;6.956;2024-03-22T06:51:24;29.87;;;18.20;;
83649;SDS011;73612;50.948;6.956;2024-03-22T06:53:50;32.80;;;18.07;;
83649;SDS011;73612;50.948;6.956;2024-03-22T06:56:17;26.03;;;16.47;;
83649;SDS011;73612;50.948;6.956;2024-03-22T06:58:44;26.67;;;17.13;;
83649;SDS011;73612;50.948;6.956;2024-03-22T07:01:11;30.63;;;17.53;;
83649;SDS011;73612;50.948;6.956;2024-03-22T07:03:37;31.03;;;17.90;;
83649;SDS011;73612;50.948;6.956;2024-03-22T07:06:04;32.93;;;17.57;;
83649;SDS011;73612;50.948;6.956;2024-03-22T07:08:31;32.57;;;17.70;;
83649;SDS011;73612;50.948;6.956;2024-03-22T07:10:58;38.83;;;16.63;;
83649;SDS011;73612;50.948;6.956;2024-03-22T07:13:24;30.80;;;17.20;;
83649;SDS011;73612;50.948;6.956;2024-03-22T07:15:51;32.50;;;18.23;;
83649;SDS011;73612;50.948;6.956;2024-03-22T07:18:18;31.80;;;17.87;;
83649;SDS011;73612;50.948;6.956;2024-03-22T07:20:45;29.77;;;17.57;;
83649;SDS011;73612;50.948;6.956;2024-03-22T07:23:12;36.40;;;17.73;;
83649;SDS011;73612;50.948;6.956;2024-03-22T07:25:38;26.57;;;16.37;;
83649;SDS011;73612;50.948;6.956;2024-03-22T07:28:05;35.63;;;16.50;;
83649;SDS011;73612;50.948;6.956;2024-03-22T07:30:32;28.20;;;16.80;;
83649;SDS011;73612;50.948;6.956;2024-03-22T07:32:59;26.20;;;16.53;;
83649;SDS011;73612;50.948;6.956;2024-03-22T07:35:26;31.27;;;17.67;;
83649;SDS011;73612;50.948;6.956;2024-03-22T07:37:52;27.27;;;16.53;;
83649;SDS011;73612;50.948;6.956;2024-03-22T07:40:19;28.60;;;17.00;;
83649;SDS011;73612;50.948;6.956;2024-03-22T07:42:46;26.13;;;16.83;;
83649;SDS011;73612;50.948;6.956;2024-03-22T07:45:13;28.53;;;16.97;;
83649;SDS011;73612;50.948;6.956;2024-03-22T07:47:40;31.07;;;17.80;;
83649;SDS011;73612;50.948;6.956;2024-03-22T07:50:06;33.70;;;17.60;;
83649;SDS011;73612;50.948;6.956;2024-03-22T07:52:33;33.90;;;17.70;;
83649;SDS011;73612;50.948;6.956;2024-03-22T07:55:00;28.10;;;17.00;;
83649;SDS011;73612;50.948;6.956;2024-03-22T07:57:28;30.17;;;17.73;;
83649;SDS011;73612;50.948;6.956;2024-03-22T07:59:55;30.87;;;16.17;;
83649;SDS011;73612;50.948;6.956;2024-03-22T08:02:22;30.77;;;17.20;;
83649;SDS011;73612;50.948;6.956;2024-03-22T08:04:49;32.10;;;17.47;;
83649;SDS011;73612;50.948;6.956;2024-03-22T08:07:16;34.77;;;18.13;;
83649;SDS011;73612;50.948;6.956;2024-03-22T08:09:42;34.73;;;18.07;;
83649;SDS011;73612;50.948;6.956;2024-03-22T08:12:09;32.40;;;18.97;;
83649;SDS011;73612;50.948;6.956;2024-03-22T08:14:36;34.43;;;19.13;;
83649;SDS011;73612;50.948;6.956;2024-03-22T08:17:02;34.63;;;19.13;;
83649;SDS011;73612;50.948;6.956;2024-03-22T08:19:29;36.50;;;19.23;;
83649;SDS011;73612;50.948;6.956;2024-03-22T08:21:57;37.57;;;20.97;;
83649;SDS011;73612;50.948;6.956;2024-03-22T08:24:24;33.53;;;20.37;;
83649;SDS011;73612;50.948;6.956;2024-03-22T08:26:50;33.83;;;19.77;;
83649;SDS011;73612;50.948;6.956;2024-03-22T08:29:17;33.60;;;20.70;;
83649;SDS011;73612;50.948;6.956;2024-03-22T08:31:44;34.67;;;20.23;;
83649;SDS011;73612;50.948;6.956;2024-03-22T08:34:11;31.60;;;20.60;;
83649;SDS011;73612;50.948;6.956;2024-03-22T08:36:38;33.80;;;19.03;;
83649;SDS011;73612;50.948;6.956;2024-03-22T08:39:05;36.93;;;20.60;;
83649;SDS011;73612;50.948;6.956;2024-03-22T08:41:32;33.50;;;20.53;;
83649;SDS011;73612;50.948;6.956;2024-03-22T08:43:58;33.43;;;19.63;;
83649;SDS011;73612;50.948;6.956;2024-03-22T08:46:25;33.13;;;19.50;;
83649;SDS011;73612;50.948;6.956;2024-03-22T08:48:52;30.17;;;19.07;;
83649;SDS011;73612;50.948;6.956;2024-03-22T08:51:20;31.50;;;18.90;;
83649;SDS011;73612;50.948;6.956;2024-03-22T08:53:46;34.57;;;20.60;;
83649;SDS011;73612;50.948;6.956;2024-03-22T08:56:12;29.07;;;18.57;;
83649;SDS011;73612;50.948;6.956;2024-03-22T08:58:39;27.43;;;16.80;;
83649;SDS011;73612;50.948;6.956;2024-03-22T09:01:06;27.70;;;17.43;;
83649;SDS011;73612;50.948;6.956;2024-03-22T09:03:33;26.40;;;15.83;;
83649;SDS011;73612;50.948;6.956;2024-03-22T09:05:59;25.00;;;15.83;;
83649;SDS011;73612;50.948;6.956;2024-03-22T09:08:26;27.73;;;14.30;;
83649;SDS011;73612;50.948;6.956;2024-03-22T09:10:53;23.17;;;12.37;;
83649;SDS011;73612;50.948;6.956;2024-03-22T09:13:19;24.50;;;14.53;;
83649;SDS011;73612;50.948;6.956;2024-03-22T09:15:46;28.97;;;14.07;;
83649;SDS011;73612;50.948;6.956;2024-03-22T09:18:12;21.73;;;12.07;;
83649;SDS011;73612;50.948;6.956;2024-03-22T09:20:39;22.73;;;13.17;;
83649;SDS011;73612;50.948;6.956;2024-03-22T09:23:05;21.30;;;12.67;;
83649;SDS011;73612;50.948;6.956;2024-03-22T09:25:32;21.50;;;11.93;;
83649;SDS011;73612;50.948;6.956;2024-03-22T09:27:59;21.73;;;12.67;;
83649;SDS011;73612;50.948;6.956;2024-03-22T09:30:25;17.60;;;10.60;;
83649;SDS011;73612;50.948;6.956;2024-03-22T09:32:52;17.40;;;9.87;;
83649;SDS011;73612;50.948;6.956;2024-03-22T09:35:18;13.80;;;7.37;;
83649;SDS011;73612;50.948;6.956;2024-03-22T09:37:45;15.10;;;9.37;;
83649;SDS011;73612;50.948;6.956;2024-03-22T09:40:12;20.10;;;10.00;;
83649;SDS011;73612;50.948;6.956;2024-03-22T09:42:38;18.20;;;10.20;;
83649;SDS011;73612;50.948;6.956;2024-03-22T09:45:07;23.70;;;12.17;;
83649;SDS011;73612;50.948;6.956;2024-03-22T09:47:33;13.83;;;8.47;;
83649;SDS011;73612;50.948;6.956;2024-03-22T09:49:59;12.73;;;7.93;;
83649;SDS011;73612;50.948;6.956;2024-03-22T09:52:26;16.30;;;8.50;;
83649;SDS011;73612;50.948;6.956;2024-03-22T09:54:53;21.73;;;13.97;;
83649;SDS011;73612;50.948;6.956;2024-03-22T09:57:19;29.80;;;16.23;;
83649;SDS011;73612;50.948;6.956;2024-03-22T09:59:46;13.90;;;8.23;;
83649;SDS011;73612;50.948;6.956;2024-03-22T10:02:13;8.40;;;5.23;;
83649;SDS011;73612;50.948;6.956;2024-03-22T10:04:40;16.83;;;7.87;;
83649;SDS011;73612;50.948;6.956;2024-03-22T10:07:07;14.73;;;7.97;;
83649;SDS011;73612;50.948;6.956;2024-03-22T10:09:34;28.77;;;16.27;;
83649;SDS011;73612;50.948;6.956;2024-03-22T10:12:01;29.57;;;15.67;;
83649;SDS011;73612;50.948;6.956;2024-03-22T10:14:27;30.77;;;16.70;;
83649;SDS011;73612;50.948;6.956;2024-03-22T10:16:54;17.70;;;11.40;;
83649;SDS011;73612;50.948;6.956;2024-03-22T10:19:21;14.53;;;8.67;;
83649;SDS011;73612;50.948;6.956;2024-03-22T10:21:48;11.77;;;7.53;;
83649;SDS011;73612;50.948;6.956;2024-03-22T10:24:14;11.73;;;6.87;;
83649;SDS011;73612;50.948;6.956;2024-03-22T10:26:41;14.53;;;8.03;;
83649;SDS011;73612;50.948;6.956;2024-03-22T10:29:08;14.10;;;8.20;;
83649;SDS011;73612;50.948;6.956;2024-03-22T10:31:35;13.30;;;8.47;;
83649;SDS011;73612;50.948;6.956;2024-03-22T10:34:08;18.13;;;8.70;;
83649;SDS011;73612;50.948;6.956;2024-03-22T10:36:44;20.03;;;11.80;;
83649;SDS011;73612;50.948;6.956;2024-03-22T10:39:19;28.97;;;16.23;;
83649;SDS011;73612;50.948;6.956;2024-03-22T10:41:51;23.60;;;13.30;;
83649;SDS011;73612;50.948;6.956;2024-03-22T10:44:33;16.90;;;10.17;;
83649;SDS011;73612;50.948;6.956;2024-03-22T10:47:00;15.07;;;8.13;;
83649;SDS011;73612;50.948;6.956;2024-03-22T10:49:41;14.33;;;8.17;;
83649;SDS011;73612;50.948;6.956;2024-03-22T10:52:18;16.57;;;9.70;;
83649;SDS011;73612;50.948;6.956;2024-03-22T10:55:10;14.67;;;9.60;;
83649;SDS011;73612;50.948;6.956;2024-03-22T11:06:07;28.60;;;13.20;;
83649;SDS011;73612;50.948;6.956;2024-03-22T11:08:53;28.73;;;15.07;;
83649;SDS011;73612;50.948;6.956;2024-03-22T11:11:20;20.10;;;11.40;;
83649;SDS011;73612;50.948;6.956;2024-03-22T11:13:58;21.27;;;11.70;;
83649;SDS011;73612;50.948;6.956;2024-03-22T11:16:24;24.27;;;13.13;;
83649;SDS011;73612;50.948;6.956;2024-03-22T11:18:51;19.07;;;11.27;;
83649;SDS011;73612;50.948;6.956;2024-03-22T11:21:18;43.60;;;24.90;;
83649;SDS011;73612;50.948;6.956;2024-03-22T11:23:45;31.30;;;16.10;;
83649;SDS011;73612;50.948;6.956;2024-03-22T11:26:11;36.67;;;22.30;;
83649;SDS011;73612;50.948;6.956;2024-03-22T11:28:38;77.83;;;42.13;;
83649;SDS011;73612;50.948;6.956;2024-03-22T11:31:05;40.30;;;23.13;;
83649;SDS011;73612;50.948;6.956;2024-03-22T11:33:32;32.77;;;20.27;;
83649;SDS011;73612;50.948;6.956;2024-03-22T11:35:59;42.97;;;21.80;;
83649;SDS011;73612;50.948;6.956;2024-03-22T11:38:26;34.40;;;19.10;;
83649;SDS011;73612;50.948;6.956;2024-03-22T11:40:52;25.10;;;17.30;;
83649;SDS011;73612;50.948;6.956;2024-03-22T11:43:19;30.83;;;18.07;;
83649;SDS011;73612;50.948;6.956;2024-03-22T11:45:45;22.27;;;14.97;;
83649;SDS011;73612;50.948;6.956;2024-03-22T11:48:12;57.10;;;34.53;;
83649;SDS011;73612;50.948;6.956;2024-03-22T11:50:38;34.27;;;18.17;;
83649;SDS011;73612;50.948;6.956;2024-03-22T11:53:05;54.00;;;27.37;;
83649;SDS011;73612;50.948;6.956;2024-03-22T11:55:32;35.20;;;22.57;;
83649;SDS011;73612;50.948;6.956;2024-03-22T11:57:58;36.63;;;22.00;;
83649;SDS011;73612;50.948;6.956;2024-03-22T12:00:25;29.37;;;19.23;;
83649;SDS011;73612;50.948;6.956;2024-03-22T12:02:52;30.87;;;18.17;;
83649;SDS011;73612;50.948;6.956;2024-03-22T12:05:18;33.57;;;20.40;;
83649;SDS011;73612;50.948;6.956;2024-03-22T12:07:45;43.67;;;25.90;;
83649;SDS011;73612;50.948;6.956;2024-03-22T12:10:11;86.40;;;41.10;;
83649;SDS011;73612;50.948;6.956;2024-03-22T12:12:38;36.67;;;21.80;;
83649;SDS011;73612;50.948;6.956;2024-03-22T12:15:05;30.03;;;18.13;;
83649;SDS011;73612;50.948;6.956;2024-03-22T12:17:32;47.60;;;27.13;;
83649;SDS011;73612;50.948;6.956;2024-03-22T12:19:58;39.73;;;24.80;;
83649;SDS011;73612;50.948;6.956;2024-03-22T12:22:25;55.80;;;29.23;;
83649;SDS011;73612;50.948;6.956;2024-03-22T12:24:51;55.07;;;30.60;;
83649;SDS011;73612;50.948;6.956;2024-03-22T12:27:18;27.20;;;15.50;;
83649;SDS011;73612;50.948;6.956;2024-03-22T12:29:45;22.80;;;14.00;;
83649;SDS011;73612;50.948;6.956;2024-03-22T12:32:11;29.67;;;18.40;;
83649;SDS011;73612;50.948;6.956;2024-03-22T12:34:38;31.50;;;19.50;;
83649;SDS011;73612;50.948;6.956;2024-03-22T12:37:05;32.93;;;20.10;;
83649;SDS011;73612;50.948;6.956;2024-03-22T12:39:31;32.43;;;17.83;;
83649;SDS011;73612;50.948;6.956;2024-03-22T12:41:58;46.73;;;26.17;;
83649;SDS011;73612;50.948;6.956;2024-03-22T12:44:25;43.53;;;25.67;;
83649;SDS011;73612;50.948;6.956;2024-03-22T12:46:52;44.40;;;27.83;;
83649;SDS011;73612;50.948;6.956;2024-03-22T12:49:18;65.07;;;31.97;;
83649;SDS011;73612;50.948;6.956;2024-03-22T12:51:45;27.73;;;14.77;;
83649;SDS011;73612;50.948;6.956;2024-03-22T12:54:13;21.50;;;14.63;;
83649;SDS011;73612;50.948;6.956;2024-03-22T12:56:39;33.83;;;19.13;;
83649;SDS011;73612;50.948;6.956;2024-03-22T12:59:06;51.27;;;27.63;;
83649;SDS011;73612;50.948;6.956;2024-03-22T13:01:33;56.80;;;33.13;;
83649;SDS011;73612;50.948;6.956;2024-03-22T13:03:59;36.63;;;22.23;;
83649;SDS011;73612;50.948;6.956;2024-03-22T13:06:26;42.63;;;21.30;;
83649;SDS011;73612;50.948;6.956;2024-03-22T13:08:53;29.67;;;16.10;;
83649;SDS011;73612;50.948;6.956;2024-03-22T13:11:19;22.77;;;15.23;;
83649;SDS011;73612;50.948;6.956;2024-03-22T13:13:46;23.07;;;13.20;;
83649;SDS011;73612;50.948;6.956;2024-03-22T13:16:13;19.03;;;12.57;;
83649;SDS011;73612;50.948;6.956;2024-03-22T13:18:41;28.50;;;17.57;;
83649;SDS011;73612;50.948;6.956;2024-03-22T13:21:07;21.73;;;14.40;;
83649;SDS011;73612;50.948;6.956;2024-03-22T13:23:33;41.20;;;24.07;;
83649;SDS011;73612;50.948;6.956;2024-03-22T13:26:03;35.73;;;20.13;;
83649;SDS011;73612;50.948;6.956;2024-03-22T13:28:30;24.23;;;14.97;;
83649;SDS011;73612;50.948;6.956;2024-03-22T13:30:59;23.77;;;14.50;;
83649;SDS011;73612;50.948;6.956;2024-03-22T13:33:26;26.70;;;15.70;;
83649;SDS011;73612;50.948;6.956;2024-03-22T13:35:52;27.50;;;14.70;;
83649;SDS011;73612;50.948;6.956;2024-03-22T13:38:19;25.73;;;15.07;;
83649;SDS011;73612;50.948;6.956;2024-03-22T13:40:52;24.30;;;15.20;;
83649;SDS011;73612;50.948;6.956;2024-03-22T13:43:18;29.03;;;16.33;;
83649;SDS011;73612;50.948;6.956;2024-03-22T13:45:45;23.37;;;15.13;;
83649;SDS011;73612;50.948;6.956;2024-03-22T13:48:12;23.33;;;16.03;;
83649;SDS011;73612;50.948;6.956;2024-03-22T13:50:39;25.87;;;15.67;;
83649;SDS011;73612;50.948;6.956;2024-03-22T13:53:06;26.07;;;16.80;;
83649;SDS011;73612;50.948;6.956;2024-03-22T13:55:32;24.60;;;16.10;;
83649;SDS011;73612;50.948;6.956;2024-03-22T13:57:59;24.27;;;16.07;;
83649;SDS011;73612;50.948;6.956;2024-03-22T14:00:26;29.97;;;20.27;;
83649;SDS011;73612;50.948;6.956;2024-03-22T14:02:53;23.83;;;16.23;;
83649;SDS011;73612;50.948;6.956;2024-03-22T14:05:19;25.00;;;16.60;;
83649;SDS011;73612;50.948;6.956;2024-03-22T14:07:46;32.13;;;19.60;;
83649;SDS011;73612;50.948;6.956;2024-03-22T14:10:13;25.50;;;17.53;;
83649;SDS011;73612;50.948;6.956;2024-03-22T14:12:40;25.33;;;17.33;;
83649;SDS011;73612;50.948;6.956;2024-03-22T14:15:06;27.10;;;17.53;;
83649;SDS011;73612;50.948;6.956;2024-03-22T14:17:33;29.43;;;18.20;;
83649;SDS011;73612;50.948;6.956;2024-03-22T14:20:00;27.43;;;17.37;;
83649;SDS011;73612;50.948;6.956;2024-03-22T14:22:27;24.43;;;16.80;;
83649;SDS011;73612;50.948;6.956;2024-03-22T14:24:54;26.10;;;16.50;;
83649;SDS011;73612;50.948;6.956;2024-03-22T14:27:20;26.23;;;17.57;;
83649;SDS011;73612;50.948;6.956;2024-03-22T14:29:47;27.30;;;17.00;;